createdAt,value
2022-11-02T00:00:42.408Z,12.55
2022-11-02T00:03:28.792Z,12.60
2022-11-02T00:05:55.931Z,12.62
2022-11-02T00:08:23.406Z,12.61
2022-11-02T00:10:50.655Z,12.57
2022-11-02T00:13:18.138Z,12.60
2022-11-02T00:15:47.200Z,12.57
2022-11-02T00:18:15.702Z,12.58
2022-11-02T00:20:43.918Z,12.56
2022-11-02T00:23:13.744Z,12.54
2022-11-02T00:25:46.880Z,12.54
2022-11-02T00:28:15.620Z,12.59
2022-11-02T00:30:44.238Z,12.50
2022-11-02T00:33:12.021Z,12.48
2022-11-02T00:35:40.369Z,12.50
2022-11-02T00:38:08.227Z,12.49
2022-11-02T00:40:35.857Z,12.47
2022-11-02T00:43:03.563Z,12.50
2022-11-02T00:45:30.703Z,12.42
2022-11-02T00:47:58.111Z,12.40
2022-11-02T00:50:25.319Z,12.42
2022-11-02T00:52:52.707Z,12.40
2022-11-02T00:55:20.823Z,12.41
2022-11-02T00:57:48.252Z,12.43
2022-11-02T01:00:16.412Z,12.42
2022-11-02T01:02:43.910Z,12.54
2022-11-02T01:05:12.609Z,12.53
2022-11-02T01:07:40.298Z,12.64
2022-11-02T01:10:09.881Z,12.67
2022-11-02T01:12:39.495Z,12.72
2022-11-02T01:15:08.496Z,12.75
2022-11-02T01:17:36.612Z,12.73
2022-11-02T01:20:05.614Z,12.69
2022-11-02T01:22:33.230Z,12.68
2022-11-02T01:25:00.482Z,12.67
2022-11-02T01:27:27.794Z,12.64
2022-11-02T01:29:55.009Z,12.55
2022-11-02T01:32:22.378Z,12.54
2022-11-02T01:34:49.660Z,12.49
2022-11-02T01:37:17.199Z,12.52
2022-11-02T01:39:44.353Z,12.50
2022-11-02T01:42:25.121Z,12.49
2022-11-02T01:44:52.738Z,12.44
2022-11-02T01:47:29.850Z,12.44
2022-11-02T01:50:13.190Z,12.49
2022-11-02T01:52:41.549Z,12.46
2022-11-02T01:55:19.492Z,12.41
2022-11-02T01:57:57.859Z,12.37
2022-11-02T02:00:25.121Z,12.40
2022-11-02T02:02:56.859Z,12.42
2022-11-02T02:05:24.970Z,12.32
2022-11-02T02:07:53.892Z,12.30
2022-11-02T02:10:21.377Z,12.27
2022-11-02T02:12:48.988Z,12.18
2022-11-02T02:15:16.551Z,12.23
2022-11-02T02:18:09.462Z,12.19
2022-11-02T02:20:58.481Z,12.16
2022-11-02T02:23:41.547Z,12.15
2022-11-02T02:26:44.035Z,12.18
2022-11-02T02:29:45.476Z,12.11
2022-11-02T02:32:25.430Z,12.07
2022-11-02T02:35:18.514Z,12.03
2022-11-02T02:37:59.311Z,12.00
2022-11-02T02:40:40.751Z,12.00
2022-11-02T02:43:12.428Z,12.01
2022-11-02T02:45:56.138Z,11.99
2022-11-02T02:48:26.126Z,12.00
2022-11-02T02:51:03.993Z,11.98
2022-11-02T02:53:45.001Z,11.98
2022-11-02T02:56:18.095Z,11.96
2022-11-02T02:59:01.306Z,11.94
2022-11-02T03:01:29.343Z,12.01
2022-11-02T03:03:56.802Z,12.00
2022-11-02T03:06:35.427Z,11.97
2022-11-02T03:09:40.592Z,11.95
2022-11-02T03:12:51.673Z,11.94
2022-11-02T03:15:44.204Z,11.97
2022-11-02T03:18:32.563Z,11.90
2022-11-02T03:21:40.642Z,11.85
2022-11-02T03:24:47.244Z,11.85
2022-11-02T03:27:40.432Z,11.81
2022-11-02T03:30:14.735Z,11.81
2022-11-02T03:33:07.953Z,11.78
2022-11-02T03:36:04.952Z,11.75
2022-11-02T03:38:56.262Z,11.78
2022-11-02T03:41:26.658Z,11.76
2022-11-02T03:44:04.338Z,11.82
2022-11-02T03:46:36.328Z,11.72
2022-11-02T03:49:08.744Z,11.81
2022-11-02T03:51:42.074Z,11.83
2022-11-02T03:54:58.616Z,11.82
2022-11-02T03:57:35.995Z,11.79
2022-11-02T04:00:16.025Z,11.84
2022-11-02T04:02:58.919Z,11.78
2022-11-02T04:05:32.789Z,11.81
2022-11-02T04:08:19.694Z,11.76
2022-11-02T04:11:09.618Z,11.85
2022-11-02T04:13:56.315Z,11.75
2022-11-02T04:16:27.606Z,11.71
2022-11-02T04:19:14.325Z,11.73
2022-11-02T04:22:01.784Z,11.73
2022-11-02T04:24:47.683Z,11.81
2022-11-02T04:27:19.699Z,11.81
2022-11-02T04:29:48.703Z,11.88
2022-11-02T04:32:36.473Z,11.92
2022-11-02T04:35:05.072Z,11.89
2022-11-02T04:37:56.558Z,11.84
2022-11-02T04:40:23.955Z,11.83
2022-11-02T04:42:51.407Z,11.88
2022-11-02T04:45:19.044Z,11.88
2022-11-02T04:47:46.433Z,11.89
2022-11-02T04:50:14.032Z,11.93
2022-11-02T04:52:41.282Z,11.88
2022-11-02T04:55:09.458Z,11.88
2022-11-02T04:57:36.812Z,11.87
2022-11-02T05:00:07.366Z,11.79
2022-11-02T05:02:34.701Z,11.77
2022-11-02T05:05:02.168Z,11.72
2022-11-02T05:07:29.444Z,11.70
2022-11-02T05:09:56.817Z,11.64
2022-11-02T05:12:28.919Z,11.61
2022-11-02T05:14:56.663Z,11.59
2022-11-02T05:17:23.897Z,11.58
2022-11-02T05:19:51.366Z,11.60
2022-11-02T05:22:18.682Z,11.58
2022-11-02T05:24:46.105Z,11.52
2022-11-02T05:27:14.062Z,11.50
2022-11-02T05:29:41.464Z,11.48
2022-11-02T05:32:08.701Z,11.38
2022-11-02T05:34:36.187Z,11.37
2022-11-02T05:37:03.435Z,11.42
2022-11-02T05:39:30.863Z,11.39
2022-11-02T05:41:58.186Z,11.42
2022-11-02T05:44:25.620Z,11.44
2022-11-02T05:46:52.865Z,11.47
2022-11-02T05:49:20.309Z,11.46
2022-11-02T05:51:49.172Z,11.52
2022-11-02T05:54:16.633Z,11.53
2022-11-02T05:56:43.879Z,11.51
2022-11-02T05:59:11.254Z,11.61
2022-11-02T06:01:39.347Z,11.65
2022-11-02T06:04:06.904Z,11.65
2022-11-02T06:06:34.136Z,11.68
2022-11-02T06:09:06.701Z,11.75
2022-11-02T06:11:34.635Z,11.77
2022-11-02T06:14:03.740Z,11.89
2022-11-02T06:16:31.619Z,11.96
2022-11-02T06:18:59.151Z,12.03
2022-11-02T06:21:26.493Z,12.19
2022-11-02T06:23:53.931Z,12.37
2022-11-02T06:26:21.141Z,12.40
2022-11-02T06:28:48.570Z,12.46
2022-11-02T06:31:17.462Z,12.54
2022-11-02T06:33:45.779Z,12.58
2022-11-02T06:36:12.916Z,12.54
2022-11-02T06:38:41.935Z,12.44
2022-11-02T06:41:09.276Z,12.47
2022-11-02T06:43:38.462Z,12.53
2022-11-02T06:46:06.349Z,12.61
2022-11-02T06:48:35.563Z,12.70
2022-11-02T06:51:05.201Z,12.84
2022-11-02T06:53:33.339Z,12.98
2022-11-02T06:56:01.079Z,13.08
2022-11-02T06:58:29.167Z,13.21
2022-11-02T07:01:02.800Z,13.24
2022-11-02T07:03:31.229Z,13.43
2022-11-02T07:05:58.588Z,13.54
2022-11-02T07:08:27.850Z,13.64
2022-11-02T07:10:55.871Z,13.63
2022-11-02T07:13:23.647Z,13.61
2022-11-02T07:15:55.129Z,13.79
2022-11-02T07:18:23.364Z,14.03
2022-11-02T07:20:50.800Z,14.24
2022-11-02T07:23:18.216Z,14.58
2022-11-02T07:25:45.386Z,14.69
2022-11-02T07:28:12.853Z,14.58
2022-11-02T07:30:40.060Z,14.58
2022-11-02T07:33:07.759Z,14.75
2022-11-02T07:35:35.772Z,14.72
2022-11-02T07:38:07.266Z,14.86
2022-11-02T07:40:36.754Z,15.08
2022-11-02T07:43:05.661Z,15.46
2022-11-02T07:45:33.585Z,15.53
2022-11-02T07:48:00.971Z,15.78
2022-11-02T07:50:28.596Z,15.86
2022-11-02T07:52:58.203Z,16.30
2022-11-02T07:55:28.825Z,16.51
2022-11-02T07:58:00.115Z,16.80
2022-11-02T08:00:32.638Z,17.05
2022-11-02T08:03:03.146Z,17.68
2022-11-02T08:05:35.196Z,18.11
2022-11-02T08:08:23.848Z,18.49
2022-11-02T08:10:52.833Z,18.52
2022-11-02T08:13:23.969Z,18.27
2022-11-02T08:15:55.157Z,18.11
2022-11-02T08:18:42.853Z,18.02
2022-11-02T08:21:10.094Z,18.41
2022-11-02T08:23:37.621Z,18.56
2022-11-02T08:26:04.991Z,19.25
2022-11-02T08:28:40.110Z,20.67
2022-11-02T08:31:14.906Z,22.28
2022-11-02T08:33:46.196Z,24.72
2022-11-02T08:36:13.536Z,26.88
2022-11-02T08:38:42.330Z,28.66
2022-11-02T08:41:09.588Z,30.50
2022-11-02T08:43:37.114Z,31.31
2022-11-02T08:46:20.192Z,32.26
2022-11-02T08:48:47.777Z,33.72
2022-11-02T08:51:15.810Z,34.94
2022-11-02T08:53:48.564Z,35.94
2022-11-02T08:56:17.571Z,36.82
2022-11-02T08:58:45.158Z,37.19
2022-11-02T09:01:12.501Z,36.84
2022-11-02T09:03:40.124Z,37.32
2022-11-02T09:06:07.521Z,37.71
2022-11-02T09:08:35.159Z,38.45
2022-11-02T09:11:04.076Z,38.36
2022-11-02T09:13:31.929Z,39.15
2022-11-02T09:16:00.854Z,39.77
2022-11-02T09:18:28.705Z,39.92
2022-11-02T09:20:57.119Z,41.23
2022-11-02T09:23:24.730Z,40.67
2022-11-02T09:25:52.409Z,41.42
2022-11-02T09:28:20.243Z,41.19
2022-11-02T09:30:47.522Z,40.99
2022-11-02T09:33:15.503Z,41.22
2022-11-02T09:35:46.975Z,41.38
2022-11-02T09:38:16.441Z,40.65
2022-11-02T09:41:12.815Z,40.80
2022-11-02T09:44:08.780Z,40.84
2022-11-02T09:46:44.794Z,40.38
2022-11-02T09:49:24.449Z,40.72
2022-11-02T09:52:01.414Z,41.49
2022-11-02T09:54:45.736Z,41.53
2022-11-02T09:57:28.328Z,42.95
2022-11-02T09:59:57.392Z,42.86
2022-11-02T10:03:24.559Z,41.55
2022-11-02T10:06:23.312Z,42.24
2022-11-02T10:09:04.279Z,41.38
2022-11-02T10:12:09.278Z,41.67
2022-11-02T10:14:56.981Z,42.01
2022-11-02T10:17:33.442Z,41.75
2022-11-02T10:20:39.028Z,41.45
2022-11-02T10:23:18.049Z,41.50
2022-11-02T10:25:49.511Z,42.55
2022-11-02T10:28:31.266Z,42.89
2022-11-02T10:30:59.000Z,43.94
2022-11-02T10:33:29.544Z,44.63
2022-11-02T10:36:19.525Z,44.47
2022-11-02T10:39:23.021Z,43.65
2022-11-02T10:42:11.163Z,43.33
2022-11-02T10:45:05.761Z,43.25
2022-11-02T10:48:14.908Z,42.57
2022-11-02T10:50:59.401Z,42.90
2022-11-02T10:53:40.733Z,43.13
2022-11-02T10:56:32.639Z,43.60
2022-11-02T10:59:13.011Z,43.42
2022-11-02T11:01:56.521Z,44.03
2022-11-02T11:04:28.451Z,45.26
2022-11-02T11:06:58.239Z,45.28
2022-11-02T11:09:58.121Z,45.51
2022-11-02T11:12:41.065Z,45.58
2022-11-02T11:21:04.677Z,41.08
2022-11-02T11:23:32.342Z,42.02
2022-11-02T11:26:04.326Z,42.03
2022-11-02T11:28:56.113Z,42.32
2022-11-02T11:31:24.613Z,43.31
2022-11-02T11:34:00.246Z,43.42
2022-11-02T11:36:34.746Z,43.16
2022-11-02T11:39:30.963Z,42.92
2022-11-02T11:42:05.439Z,43.83
2022-11-02T11:44:34.495Z,43.98
2022-11-02T11:47:02.462Z,44.41
2022-11-02T11:49:55.438Z,44.61
2022-11-02T11:52:32.202Z,45.52
2022-11-02T11:55:27.490Z,44.23
2022-11-02T11:58:24.106Z,43.69
2022-11-02T12:01:17.340Z,44.54
2022-11-02T12:03:56.806Z,44.56
2022-11-02T12:06:37.232Z,44.97
2022-11-02T12:09:45.421Z,44.14
2022-11-02T12:12:49.092Z,44.68
2022-11-02T12:15:45.496Z,45.38
2022-11-02T12:18:30.833Z,45.22
2022-11-02T12:21:48.116Z,43.66
2022-11-02T12:24:31.590Z,43.71
2022-11-02T12:27:22.448Z,44.06
2022-11-02T12:29:59.047Z,44.30
2022-11-02T12:33:10.617Z,43.65
2022-11-02T12:36:05.301Z,43.83
2022-11-02T12:39:08.291Z,43.68
2022-11-02T12:42:03.341Z,42.84
2022-11-02T12:44:46.686Z,43.19
2022-11-02T12:47:53.299Z,43.23
2022-11-02T12:50:47.778Z,43.41
2022-11-02T12:53:58.664Z,39.57
2022-11-02T12:56:44.298Z,37.27
2022-11-02T12:59:34.587Z,35.08
2022-11-02T13:02:32.293Z,35.97
2022-11-02T13:05:08.491Z,33.66
2022-11-02T13:07:48.875Z,32.44
2022-11-02T13:10:54.414Z,31.62
2022-11-02T13:13:41.325Z,30.66
2022-11-02T13:16:11.776Z,30.14
2022-11-02T13:18:50.372Z,29.52
2022-11-02T13:21:43.963Z,31.11
2022-11-02T13:24:19.397Z,30.14
2022-11-02T13:26:57.136Z,29.43
2022-11-02T13:29:45.479Z,28.52
2022-11-02T13:32:41.878Z,27.43
2022-11-02T13:35:32.249Z,26.88
2022-11-02T13:38:36.870Z,25.97
2022-11-02T13:41:25.919Z,25.51
2022-11-02T13:44:26.979Z,26.01
2022-11-02T13:47:05.721Z,25.35
2022-11-02T13:49:41.886Z,24.79
2022-11-02T13:52:24.632Z,24.32
2022-11-02T13:54:59.200Z,23.82
2022-11-02T13:57:40.302Z,23.41
2022-11-02T14:00:23.890Z,22.77
2022-11-02T14:03:18.380Z,22.62
2022-11-02T14:05:54.344Z,22.46
2022-11-02T14:08:39.351Z,22.18
2022-11-02T14:11:19.941Z,22.00
2022-11-02T14:13:56.274Z,21.87
2022-11-02T14:16:42.457Z,21.89
2022-11-02T14:19:20.399Z,21.93
2022-11-02T14:21:59.904Z,21.98
2022-11-02T14:24:32.867Z,22.12
2022-11-02T14:27:02.190Z,21.98
2022-11-02T14:29:54.621Z,21.77
2022-11-02T14:32:26.686Z,21.51
2022-11-02T14:35:37.636Z,21.15
2022-11-02T14:42:10.741Z,20.73
2022-11-02T14:45:01.166Z,20.48
2022-11-02T14:47:33.801Z,20.23
2022-11-02T14:50:17.437Z,19.97
2022-11-02T14:53:07.761Z,19.66
2022-11-02T14:55:39.252Z,19.61
2022-11-02T14:58:19.002Z,19.31
2022-11-02T15:00:49.839Z,19.37
2022-11-02T15:03:26.023Z,19.19
2022-11-02T15:06:10.704Z,18.97
2022-11-02T15:09:01.181Z,18.80
2022-11-02T15:11:48.643Z,18.62
2022-11-02T15:14:37.968Z,18.28
2022-11-02T15:17:17.140Z,18.10
2022-11-02T15:19:49.041Z,18.07
2022-11-02T15:23:14.449Z,17.93
2022-11-02T15:25:54.744Z,17.77
2022-11-02T15:28:32.456Z,17.70
2022-11-02T15:31:15.475Z,17.59
2022-11-02T15:33:46.980Z,17.46
2022-11-02T15:36:37.496Z,17.30
2022-11-02T15:39:12.602Z,17.23
2022-11-02T15:41:54.431Z,17.07
2022-11-02T15:45:09.478Z,16.98
2022-11-02T15:48:20.283Z,16.95
2022-11-02T15:51:18.276Z,16.94
2022-11-02T15:54:23.818Z,16.84
2022-11-02T15:57:30.513Z,16.70
2022-11-02T16:00:30.466Z,16.72
2022-11-02T16:03:09.566Z,16.67
2022-11-02T16:05:47.699Z,16.64
2022-11-02T16:08:24.657Z,16.58
2022-11-02T16:11:22.844Z,16.41
2022-11-02T16:14:08.705Z,16.45
2022-11-02T16:16:50.469Z,16.37
2022-11-02T16:19:22.265Z,16.33
2022-11-02T16:21:50.661Z,16.25
2022-11-02T16:24:19.811Z,16.18
2022-11-02T16:26:49.152Z,16.18
2022-11-02T16:29:30.711Z,16.13
2022-11-02T16:31:58.399Z,16.14
2022-11-02T16:34:33.319Z,16.09
2022-11-02T16:37:10.030Z,16.07
2022-11-02T16:39:42.129Z,16.02
2022-11-02T16:42:25.372Z,15.95
2022-11-02T16:45:04.063Z,15.93
2022-11-02T16:47:41.816Z,15.90
2022-11-02T16:50:25.458Z,15.83
2022-11-02T16:53:02.752Z,15.77
2022-11-02T16:55:40.530Z,15.76
2022-11-02T16:58:22.637Z,15.68
2022-11-02T17:01:05.480Z,15.64
2022-11-02T17:03:34.875Z,15.58
2022-11-02T17:06:07.729Z,15.56
2022-11-02T17:08:38.446Z,15.50
2022-11-02T17:11:12.393Z,15.48
2022-11-02T17:13:53.044Z,15.42
2022-11-02T17:16:21.719Z,15.43
2022-11-02T17:18:48.889Z,15.39
2022-11-02T17:21:29.502Z,15.32
2022-11-02T17:23:59.137Z,15.32
2022-11-02T17:26:34.772Z,15.27
2022-11-02T17:29:22.933Z,15.25
2022-11-02T17:31:57.380Z,15.18
2022-11-02T17:34:24.986Z,15.16
2022-11-02T17:36:53.022Z,15.03
2022-11-02T17:39:21.077Z,15.01
2022-11-02T17:42:16.677Z,14.93
2022-11-02T17:44:45.717Z,14.86
2022-11-02T17:47:17.393Z,14.79
2022-11-02T17:49:44.757Z,14.73
2022-11-02T17:52:16.575Z,14.70
2022-11-02T17:54:43.896Z,14.68
2022-11-02T17:57:15.831Z,14.61
2022-11-02T17:59:43.084Z,14.62
2022-11-02T18:02:15.983Z,14.59
2022-11-02T18:07:15.881Z,14.51
2022-11-02T18:09:43.150Z,14.51
2022-11-02T18:12:14.493Z,14.43
2022-11-02T18:14:42.289Z,14.47
2022-11-02T18:17:09.903Z,14.43
2022-11-02T18:19:37.150Z,14.38
2022-11-02T18:22:04.776Z,14.37
2022-11-02T18:24:32.083Z,14.33
2022-11-02T18:26:59.641Z,14.29
2022-11-02T18:29:26.820Z,14.27
2022-11-02T18:31:54.263Z,14.23
2022-11-02T18:34:21.857Z,14.18
2022-11-02T18:36:49.375Z,14.17
2022-11-02T18:39:16.788Z,14.16
2022-11-02T18:41:44.408Z,14.08
2022-11-02T18:44:15.300Z,14.02
2022-11-02T18:46:43.634Z,13.93
2022-11-02T18:49:11.061Z,13.88
2022-11-02T18:51:43.065Z,13.86
2022-11-02T18:54:10.627Z,13.76
2022-11-02T18:56:38.237Z,13.70
2022-11-02T18:59:05.409Z,13.61
2022-11-02T19:01:33.108Z,13.64
2022-11-02T19:04:01.544Z,13.66
2022-11-02T19:06:51.828Z,13.60
2022-11-02T19:09:23.268Z,13.59
2022-11-02T19:12:29.283Z,13.58
2022-11-02T19:14:57.334Z,13.62
2022-11-02T19:17:26.918Z,13.63
2022-11-02T19:19:54.680Z,13.69
2022-11-02T19:22:26.199Z,13.67
2022-11-02T19:24:53.937Z,13.68
2022-11-02T19:27:25.722Z,13.71
2022-11-02T19:29:53.182Z,13.72
2022-11-02T19:32:21.299Z,13.67
2022-11-02T19:34:48.667Z,13.70
2022-11-02T19:37:16.316Z,13.69
2022-11-02T19:39:43.883Z,13.72
2022-11-02T19:42:11.450Z,13.68
2022-11-02T19:44:42.760Z,13.71
2022-11-02T19:47:10.919Z,13.65
2022-11-02T19:49:38.212Z,13.62
2022-11-02T19:52:05.826Z,13.61
2022-11-02T19:54:33.069Z,13.62
2022-11-02T19:57:00.703Z,13.63
2022-11-02T19:59:28.714Z,13.57
2022-11-02T20:01:56.544Z,13.57
2022-11-02T20:04:23.909Z,13.53
2022-11-02T20:06:51.497Z,13.43
2022-11-02T20:09:20.072Z,13.38
2022-11-02T20:11:48.452Z,13.35
2022-11-02T20:14:17.639Z,13.31
2022-11-02T20:16:58.411Z,13.21
2022-11-02T20:19:32.035Z,13.20
2022-11-02T20:21:59.638Z,13.05
2022-11-02T20:24:26.925Z,13.05
2022-11-02T20:26:57.238Z,13.08
2022-11-02T20:29:24.537Z,13.03
2022-11-02T20:31:52.153Z,13.02
2022-11-02T20:34:19.458Z,12.95
2022-11-02T20:36:47.627Z,12.92
2022-11-02T20:39:14.908Z,12.90
2022-11-02T20:41:42.479Z,12.93
2022-11-02T20:44:09.781Z,12.85
2022-11-02T20:46:41.509Z,12.88
2022-11-02T20:51:57.858Z,12.96
2022-11-02T20:54:26.250Z,12.98
2022-11-02T20:56:53.900Z,12.94
2022-11-02T20:59:21.165Z,13.00
2022-11-02T21:01:50.806Z,13.05
2022-11-02T21:04:21.117Z,13.12
2022-11-02T21:06:50.232Z,13.15
2022-11-02T21:09:18.514Z,13.10
2022-11-02T21:12:04.503Z,13.07
2022-11-02T21:14:31.812Z,13.12
2022-11-02T21:16:59.431Z,13.11
2022-11-02T21:19:26.761Z,13.18
2022-11-02T21:21:59.398Z,13.23
2022-11-02T21:24:28.963Z,13.25
2022-11-02T21:26:56.677Z,13.25
2022-11-02T21:29:24.231Z,13.21
2022-11-02T21:31:51.742Z,13.16
2022-11-02T21:34:19.034Z,13.06
2022-11-02T21:36:48.512Z,13.17
2022-11-02T21:39:15.962Z,13.18
2022-11-02T21:41:43.627Z,13.15
2022-11-02T21:44:12.068Z,13.14
2022-11-02T21:46:39.694Z,13.13
2022-11-02T21:49:07.007Z,13.12
2022-11-02T21:51:35.223Z,13.13
2022-11-02T21:54:02.414Z,13.12
2022-11-02T21:56:32.044Z,13.06
2022-11-02T21:58:59.687Z,13.01
2022-11-02T22:01:45.565Z,12.95
2022-11-02T22:04:17.255Z,12.86
2022-11-02T22:06:44.899Z,12.80
2022-11-02T22:09:13.542Z,12.76
2022-11-02T22:11:41.218Z,12.75
2022-11-02T22:14:08.669Z,12.69
2022-11-02T22:16:42.748Z,12.62
2022-11-02T22:19:15.339Z,12.56
2022-11-02T22:21:45.081Z,12.47
2022-11-02T22:24:12.655Z,12.40
2022-11-02T22:26:40.841Z,12.43
2022-11-02T22:29:08.974Z,12.47
2022-11-02T22:31:40.123Z,12.44
2022-11-02T22:34:11.221Z,12.44
2022-11-02T22:36:44.718Z,12.44
2022-11-02T22:39:14.168Z,12.41
2022-11-02T22:41:45.198Z,12.43
2022-11-02T22:44:15.634Z,12.46
2022-11-02T22:46:50.361Z,12.41
2022-11-02T22:49:19.925Z,12.36
2022-11-02T22:51:50.087Z,12.30
2022-11-02T22:54:19.909Z,12.24
2022-11-02T22:56:48.790Z,12.29
2022-11-02T22:59:16.655Z,12.29
2022-11-02T23:01:44.294Z,12.34
2022-11-02T23:04:12.280Z,12.30
2022-11-02T23:06:40.406Z,12.34
2022-11-02T23:09:07.727Z,12.31
2022-11-02T23:11:37.644Z,12.34
2022-11-02T23:14:14.659Z,12.36
2022-11-02T23:16:44.464Z,12.38
2022-11-02T23:19:27.575Z,12.37
2022-11-02T23:22:23.276Z,12.38
2022-11-02T23:25:20.105Z,12.25
2022-11-02T23:28:17.799Z,12.23
2022-11-02T23:31:03.960Z,12.19
2022-11-02T23:33:36.433Z,12.11
2022-11-02T23:36:11.029Z,12.05
2022-11-02T23:39:03.616Z,12.03
2022-11-02T23:41:33.773Z,11.97
2022-11-02T23:44:14.596Z,11.94
2022-11-02T23:46:48.709Z,11.90
2022-11-02T23:49:18.347Z,11.83
2022-11-02T23:52:04.345Z,11.81
2022-11-02T23:54:50.313Z,11.77
2022-11-02T23:57:18.711Z,11.74
2022-11-02T23:59:46.322Z,11.69
